sensor_id;sensor_type;location;lat;lon;timestamp;temperature;humidity
8422;DHT22;4248;48.196;10.924;2023-07-31T00:04:14;16.10;33.80
8422;DHT22;4248;48.196;10.924;2023-07-31T00:06:40;16.00;34.60
8422;DHT22;4248;48.196;10.924;2023-07-31T00:09:05;15.90;35.50
8422;DHT22;4248;48.196;10.924;2023-07-31T00:11:31;15.90;36.30
8422;DHT22;4248;48.196;10.924;2023-07-31T00:13:57;15.80;36.50
8422;DHT22;4248;48.196;10.924;2023-07-31T00:16:23;15.70;36.70
8422;DHT22;4248;48.196;10.924;2023-07-31T00:18:48;15.60;36.30
8422;DHT22;4248;48.196;10.924;2023-07-31T00:21:14;15.50;37.70
8422;DHT22;4248;48.196;10.924;2023-07-31T00:23:39;15.50;38.00
8422;DHT22;4248;48.196;10.924;2023-07-31T00:26:05;15.40;38.30
8422;DHT22;4248;48.196;10.924;2023-07-31T00:28:30;15.30;37.60
8422;DHT22;4248;48.196;10.924;2023-07-31T00:30:56;15.30;38.60
8422;DHT22;4248;48.196;10.924;2023-07-31T00:33:22;15.30;38.70
8422;DHT22;4248;48.196;10.924;2023-07-31T00:35:48;15.30;38.80
8422;DHT22;4248;48.196;10.924;2023-07-31T00:38:14;15.40;38.80
8422;DHT22;4248;48.196;10.924;2023-07-31T00:40:39;15.40;38.50
8422;DHT22;4248;48.196;10.924;2023-07-31T00:43:05;15.40;38.70
8422;DHT22;4248;48.196;10.924;2023-07-31T00:45:31;15.50;38.40
8422;DHT22;4248;48.196;10.924;2023-07-31T00:47:58;15.50;38.10
8422;DHT22;4248;48.196;10.924;2023-07-31T00:50:27;15.70;38.00
8422;DHT22;4248;48.196;10.924;2023-07-31T00:52:54;15.80;37.80
8422;DHT22;4248;48.196;10.924;2023-07-31T00:55:19;16.00;37.60
8422;DHT22;4248;48.196;10.924;2023-07-31T00:57:48;15.90;37.20
8422;DHT22;4248;48.196;10.924;2023-07-31T01:00:13;16.00;37.00
8422;DHT22;4248;48.196;10.924;2023-07-31T01:02:39;16.00;36.70
8422;DHT22;4248;48.196;10.924;2023-07-31T01:05:05;16.10;36.50
8422;DHT22;4248;48.196;10.924;2023-07-31T01:07:45;16.20;36.50
8422;DHT22;4248;48.196;10.924;2023-07-31T01:12:50;17.20;37.30
8422;DHT22;4248;48.196;10.924;2023-07-31T01:15:17;17.90;38.00
8422;DHT22;4248;48.196;10.924;2023-07-31T01:17:43;16.20;36.50
8422;DHT22;4248;48.196;10.924;2023-07-31T01:20:21;16.20;36.80
8422;DHT22;4248;48.196;10.924;2023-07-31T01:28:47;16.20;36.90
8422;DHT22;4248;48.196;10.924;2023-07-31T01:31:20;16.20;37.20
8422;DHT22;4248;48.196;10.924;2023-07-31T01:33:47;16.30;37.00
8422;DHT22;4248;48.196;10.924;2023-07-31T01:36:14;16.30;36.90
8422;DHT22;4248;48.196;10.924;2023-07-31T01:38:39;16.30;36.00
8422;DHT22;4248;48.196;10.924;2023-07-31T01:41:05;17.00;37.70
8422;DHT22;4248;48.196;10.924;2023-07-31T01:43:30;17.60;38.10
8422;DHT22;4248;48.196;10.924;2023-07-31T01:45:56;16.40;36.90
8422;DHT22;4248;48.196;10.924;2023-07-31T01:48:21;16.40;35.90
8422;DHT22;4248;48.196;10.924;2023-07-31T01:50:47;16.40;37.10
8422;DHT22;4248;48.196;10.924;2023-07-31T01:53:12;16.40;37.20
8422;DHT22;4248;48.196;10.924;2023-07-31T01:55:38;16.40;37.40
8422;DHT22;4248;48.196;10.924;2023-07-31T01:58:04;16.40;37.50
8422;DHT22;4248;48.196;10.924;2023-07-31T02:00:29;16.30;37.90
8422;DHT22;4248;48.196;10.924;2023-07-31T02:02:55;16.30;37.80
8422;DHT22;4248;48.196;10.924;2023-07-31T02:05:20;16.40;38.00
8422;DHT22;4248;48.196;10.924;2023-07-31T02:07:46;16.20;36.90
8422;DHT22;4248;48.196;10.924;2023-07-31T02:10:12;16.30;38.00
8422;DHT22;4248;48.196;10.924;2023-07-31T02:12:37;16.30;38.00
8422;DHT22;4248;48.196;10.924;2023-07-31T02:15:03;16.40;38.10
8422;DHT22;4248;48.196;10.924;2023-07-31T02:17:29;16.30;38.00
8422;DHT22;4248;48.196;10.924;2023-07-31T02:19:55;16.20;38.30
8422;DHT22;4248;48.196;10.924;2023-07-31T02:22:20;16.00;38.10
8422;DHT22;4248;48.196;10.924;2023-07-31T02:24:46;16.00;38.90
8422;DHT22;4248;48.196;10.924;2023-07-31T02:27:11;16.00;39.10
8422;DHT22;4248;48.196;10.924;2023-07-31T02:29:37;15.90;39.40
8422;DHT22;4248;48.196;10.924;2023-07-31T02:32:03;15.80;39.60
8422;DHT22;4248;48.196;10.924;2023-07-31T02:34:28;15.70;40.20
8422;DHT22;4248;48.196;10.924;2023-07-31T02:36:54;15.60;39.80
8422;DHT22;4248;48.196;10.924;2023-07-31T02:39:19;15.50;40.70
8422;DHT22;4248;48.196;10.924;2023-07-31T02:41:45;15.60;40.90
8422;DHT22;4248;48.196;10.924;2023-07-31T02:44:10;15.60;40.50
8422;DHT22;4248;48.196;10.924;2023-07-31T02:46:39;15.70;38.90
8422;DHT22;4248;48.196;10.924;2023-07-31T02:49:04;15.70;40.10
8422;DHT22;4248;48.196;10.924;2023-07-31T02:51:30;15.70;40.10
8422;DHT22;4248;48.196;10.924;2023-07-31T02:53:55;15.80;40.20
8422;DHT22;4248;48.196;10.924;2023-07-31T02:56:21;15.70;40.00
8422;DHT22;4248;48.196;10.924;2023-07-31T02:58:46;15.90;40.10
8422;DHT22;4248;48.196;10.924;2023-07-31T03:01:12;15.70;39.90
8422;DHT22;4248;48.196;10.924;2023-07-31T03:03:37;16.10;40.10
8422;DHT22;4248;48.196;10.924;2023-07-31T03:06:03;15.80;39.80
8422;DHT22;4248;48.196;10.924;2023-07-31T03:08:28;15.80;39.70
8422;DHT22;4248;48.196;10.924;2023-07-31T03:10:54;15.80;39.80
8422;DHT22;4248;48.196;10.924;2023-07-31T03:13:19;15.70;40.10
8422;DHT22;4248;48.196;10.924;2023-07-31T03:15:45;15.60;40.40
8422;DHT22;4248;48.196;10.924;2023-07-31T03:18:10;15.60;40.50
8422;DHT22;4248;48.196;10.924;2023-07-31T03:20:36;15.50;40.80
8422;DHT22;4248;48.196;10.924;2023-07-31T03:23:02;15.40;41.20
8422;DHT22;4248;48.196;10.924;2023-07-31T03:25:27;15.40;41.60
8422;DHT22;4248;48.196;10.924;2023-07-31T03:27:53;15.40;41.70
8422;DHT22;4248;48.196;10.924;2023-07-31T03:30:18;15.40;41.40
8422;DHT22;4248;48.196;10.924;2023-07-31T03:32:44;15.50;41.10
8422;DHT22;4248;48.196;10.924;2023-07-31T03:35:09;15.50;40.90
8422;DHT22;4248;48.196;10.924;2023-07-31T03:37:35;15.50;41.00
8422;DHT22;4248;48.196;10.924;2023-07-31T03:40:00;15.40;41.30
8422;DHT22;4248;48.196;10.924;2023-07-31T03:42:26;15.30;41.60
8422;DHT22;4248;48.196;10.924;2023-07-31T03:44:52;15.20;42.10
8422;DHT22;4248;48.196;10.924;2023-07-31T03:47:17;15.00;42.50
8422;DHT22;4248;48.196;10.924;2023-07-31T03:49:43;15.00;43.00
8422;DHT22;4248;48.196;10.924;2023-07-31T03:52:09;14.90;42.90
8422;DHT22;4248;48.196;10.924;2023-07-31T03:54:34;14.80;42.80
8422;DHT22;4248;48.196;10.924;2023-07-31T03:57:00;14.80;42.80
8422;DHT22;4248;48.196;10.924;2023-07-31T03:59:26;14.80;42.80
8422;DHT22;4248;48.196;10.924;2023-07-31T04:01:51;14.80;42.90
8422;DHT22;4248;48.196;10.924;2023-07-31T04:04:17;14.70;43.20
8422;DHT22;4248;48.196;10.924;2023-07-31T04:06:42;14.70;43.30
8422;DHT22;4248;48.196;10.924;2023-07-31T04:09:08;14.80;43.60
8422;DHT22;4248;48.196;10.924;2023-07-31T04:11:33;14.80;43.60
8422;DHT22;4248;48.196;10.924;2023-07-31T04:13:59;14.80;43.50
8422;DHT22;4248;48.196;10.924;2023-07-31T04:16:24;14.90;44.30
8422;DHT22;4248;48.196;10.924;2023-07-31T04:18:50;14.80;43.40
8422;DHT22;4248;48.196;10.924;2023-07-31T04:21:15;14.90;43.50
8422;DHT22;4248;48.196;10.924;2023-07-31T04:23:41;15.00;43.10
8422;DHT22;4248;48.196;10.924;2023-07-31T04:26:07;15.00;43.00
8422;DHT22;4248;48.196;10.924;2023-07-31T04:28:32;15.10;43.20
8422;DHT22;4248;48.196;10.924;2023-07-31T04:30:58;15.40;43.40
8422;DHT22;4248;48.196;10.924;2023-07-31T04:33:24;15.20;43.20
8422;DHT22;4248;48.196;10.924;2023-07-31T04:35:51;15.30;43.00
8422;DHT22;4248;48.196;10.924;2023-07-31T04:38:21;15.60;42.70
8422;DHT22;4248;48.196;10.924;2023-07-31T04:40:47;15.50;42.20
8422;DHT22;4248;48.196;10.924;2023-07-31T04:43:12;15.70;41.80
8422;DHT22;4248;48.196;10.924;2023-07-31T04:45:38;15.80;41.30
8422;DHT22;4248;48.196;10.924;2023-07-31T04:48:04;16.00;40.80
8422;DHT22;4248;48.196;10.924;2023-07-31T04:50:29;16.20;40.30
8422;DHT22;4248;48.196;10.924;2023-07-31T04:52:56;16.40;39.70
8422;DHT22;4248;48.196;10.924;2023-07-31T04:55:21;16.70;39.20
8422;DHT22;4248;48.196;10.924;2023-07-31T04:57:47;16.90;38.30
8422;DHT22;4248;48.196;10.924;2023-07-31T05:00:13;17.40;37.20
8422;DHT22;4248;48.196;10.924;2023-07-31T05:02:38;18.60;35.40
8422;DHT22;4248;48.196;10.924;2023-07-31T05:05:04;19.50;33.60
8422;DHT22;4248;48.196;10.924;2023-07-31T05:07:29;19.90;31.30
8422;DHT22;4248;48.196;10.924;2023-07-31T05:09:55;19.80;31.10
8422;DHT22;4248;48.196;10.924;2023-07-31T05:12:20;19.60;31.40
8422;DHT22;4248;48.196;10.924;2023-07-31T05:14:46;19.40;31.70
8422;DHT22;4248;48.196;10.924;2023-07-31T05:17:11;19.10;32.20
8422;DHT22;4248;48.196;10.924;2023-07-31T05:19:37;19.00;33.00
8422;DHT22;4248;48.196;10.924;2023-07-31T05:22:03;18.90;33.00
8422;DHT22;4248;48.196;10.924;2023-07-31T05:24:28;18.80;32.90
8422;DHT22;4248;48.196;10.924;2023-07-31T05:26:54;18.80;32.90
8422;DHT22;4248;48.196;10.924;2023-07-31T05:29:20;18.80;33.00
8422;DHT22;4248;48.196;10.924;2023-07-31T05:31:45;18.80;34.20
8422;DHT22;4248;48.196;10.924;2023-07-31T05:34:11;18.90;33.00
8422;DHT22;4248;48.196;10.924;2023-07-31T05:36:36;18.80;33.00
8422;DHT22;4248;48.196;10.924;2023-07-31T05:39:02;18.80;32.70
8422;DHT22;4248;48.196;10.924;2023-07-31T05:41:32;18.90;32.30
8422;DHT22;4248;48.196;10.924;2023-07-31T05:43:57;19.00;32.00
8422;DHT22;4248;48.196;10.924;2023-07-31T05:46:23;19.10;32.00
8422;DHT22;4248;48.196;10.924;2023-07-31T05:48:48;19.10;31.60
8422;DHT22;4248;48.196;10.924;2023-07-31T05:51:14;19.10;31.40
8422;DHT22;4248;48.196;10.924;2023-07-31T05:53:39;19.30;31.10
8422;DHT22;4248;48.196;10.924;2023-07-31T05:56:06;19.30;31.00
8422;DHT22;4248;48.196;10.924;2023-07-31T05:58:31;19.40;30.80
8422;DHT22;4248;48.196;10.924;2023-07-31T06:00:57;19.50;30.50
8422;DHT22;4248;48.196;10.924;2023-07-31T06:03:22;19.80;30.30
8422;DHT22;4248;48.196;10.924;2023-07-31T06:05:48;19.80;29.90
8422;DHT22;4248;48.196;10.924;2023-07-31T06:08:14;19.80;29.70
8422;DHT22;4248;48.196;10.924;2023-07-31T06:10:39;19.80;29.70
8422;DHT22;4248;48.196;10.924;2023-07-31T06:13:05;19.80;29.70
8422;DHT22;4248;48.196;10.924;2023-07-31T06:15:30;19.70;29.70
8422;DHT22;4248;48.196;10.924;2023-07-31T06:17:56;19.70;29.80
8422;DHT22;4248;48.196;10.924;2023-07-31T06:20:22;19.80;29.60
8422;DHT22;4248;48.196;10.924;2023-07-31T06:22:48;19.90;29.20
8422;DHT22;4248;48.196;10.924;2023-07-31T06:25:14;20.00;29.10
8422;DHT22;4248;48.196;10.924;2023-07-31T06:27:39;20.00;29.10
8422;DHT22;4248;48.196;10.924;2023-07-31T06:30:05;19.90;29.00
8422;DHT22;4248;48.196;10.924;2023-07-31T06:32:31;20.00;28.90
8422;DHT22;4248;48.196;10.924;2023-07-31T06:34:56;20.10;28.60
8422;DHT22;4248;48.196;10.924;2023-07-31T06:37:22;20.30;28.10
8422;DHT22;4248;48.196;10.924;2023-07-31T06:39:48;20.70;27.20
8422;DHT22;4248;48.196;10.924;2023-07-31T06:42:13;21.10;26.30
8422;DHT22;4248;48.196;10.924;2023-07-31T06:44:39;21.90;24.60
8422;DHT22;4248;48.196;10.924;2023-07-31T06:47:05;22.90;22.50
8422;DHT22;4248;48.196;10.924;2023-07-31T06:49:30;23.40;21.70
8422;DHT22;4248;48.196;10.924;2023-07-31T06:51:56;23.70;21.50
8422;DHT22;4248;48.196;10.924;2023-07-31T06:54:22;24.10;21.50
8422;DHT22;4248;48.196;10.924;2023-07-31T06:56:47;24.10;21.30
8422;DHT22;4248;48.196;10.924;2023-07-31T06:59:13;24.10;20.70
8422;DHT22;4248;48.196;10.924;2023-07-31T07:01:38;23.70;20.70
8422;DHT22;4248;48.196;10.924;2023-07-31T07:04:04;23.20;21.20
8422;DHT22;4248;48.196;10.924;2023-07-31T07:06:29;22.90;22.40
8422;DHT22;4248;48.196;10.924;2023-07-31T07:08:55;22.60;21.80
8422;DHT22;4248;48.196;10.924;2023-07-31T07:11:20;22.40;21.90
8422;DHT22;4248;48.196;10.924;2023-07-31T07:13:46;22.40;22.10
8422;DHT22;4248;48.196;10.924;2023-07-31T07:16:12;22.60;21.60
8422;DHT22;4248;48.196;10.924;2023-07-31T07:18:37;23.10;21.20
8422;DHT22;4248;48.196;10.924;2023-07-31T07:21:03;23.10;20.60
8422;DHT22;4248;48.196;10.924;2023-07-31T07:23:28;23.10;20.30
8422;DHT22;4248;48.196;10.924;2023-07-31T07:25:54;23.20;20.00
8422;DHT22;4248;48.196;10.924;2023-07-31T07:28:20;23.40;19.50
8422;DHT22;4248;48.196;10.924;2023-07-31T07:30:50;23.50;18.90
8422;DHT22;4248;48.196;10.924;2023-07-31T07:33:15;23.80;18.40
8422;DHT22;4248;48.196;10.924;2023-07-31T07:35:41;24.00;17.50
8422;DHT22;4248;48.196;10.924;2023-07-31T07:38:07;24.40;16.90
8422;DHT22;4248;48.196;10.924;2023-07-31T07:40:32;24.60;16.20
8422;DHT22;4248;48.196;10.924;2023-07-31T07:42:58;25.00;15.40
8422;DHT22;4248;48.196;10.924;2023-07-31T07:45:25;25.30;15.00
8422;DHT22;4248;48.196;10.924;2023-07-31T07:47:50;25.50;14.30
8422;DHT22;4248;48.196;10.924;2023-07-31T07:50:16;25.40;13.80
8422;DHT22;4248;48.196;10.924;2023-07-31T07:52:42;24.90;14.10
8422;DHT22;4248;48.196;10.924;2023-07-31T07:55:07;24.20;14.60
8422;DHT22;4248;48.196;10.924;2023-07-31T07:57:33;23.80;15.40
8422;DHT22;4248;48.196;10.924;2023-07-31T07:59:59;23.30;15.40
8422;DHT22;4248;48.196;10.924;2023-07-31T08:02:24;22.90;15.40
8422;DHT22;4248;48.196;10.924;2023-07-31T08:04:50;22.70;15.70
8422;DHT22;4248;48.196;10.924;2023-07-31T08:07:16;22.50;15.70
8422;DHT22;4248;48.196;10.924;2023-07-31T08:09:41;22.40;15.70
8422;DHT22;4248;48.196;10.924;2023-07-31T08:12:07;22.30;15.60
8422;DHT22;4248;48.196;10.924;2023-07-31T08:14:33;22.10;15.40
8422;DHT22;4248;48.196;10.924;2023-07-31T08:16:59;22.00;15.80
8422;DHT22;4248;48.196;10.924;2023-07-31T08:19:25;21.80;15.70
8422;DHT22;4248;48.196;10.924;2023-07-31T08:21:50;21.80;15.40
8422;DHT22;4248;48.196;10.924;2023-07-31T08:24:16;21.70;15.30
8422;DHT22;4248;48.196;10.924;2023-07-31T08:26:42;21.90;14.90
8422;DHT22;4248;48.196;10.924;2023-07-31T08:29:08;22.30;14.50
8422;DHT22;4248;48.196;10.924;2023-07-31T08:31:33;22.20;13.90
8422;DHT22;4248;48.196;10.924;2023-07-31T08:34:00;22.10;14.00
8422;DHT22;4248;48.196;10.924;2023-07-31T08:36:25;22.20;14.10
8422;DHT22;4248;48.196;10.924;2023-07-31T08:38:51;22.40;13.90
8422;DHT22;4248;48.196;10.924;2023-07-31T08:41:17;22.50;13.60
8422;DHT22;4248;48.196;10.924;2023-07-31T08:43:50;22.80;14.30
8422;DHT22;4248;48.196;10.924;2023-07-31T08:46:16;23.10;14.10
8422;DHT22;4248;48.196;10.924;2023-07-31T08:48:44;23.50;12.80
8422;DHT22;4248;48.196;10.924;2023-07-31T08:51:11;24.00;12.00
8422;DHT22;4248;48.196;10.924;2023-07-31T08:53:36;24.40;11.60
8422;DHT22;4248;48.196;10.924;2023-07-31T08:56:02;24.40;11.30
8422;DHT22;4248;48.196;10.924;2023-07-31T08:58:31;24.40;11.50
8422;DHT22;4248;48.196;10.924;2023-07-31T09:00:59;24.30;11.30
8422;DHT22;4248;48.196;10.924;2023-07-31T09:03:26;24.40;11.30
8422;DHT22;4248;48.196;10.924;2023-07-31T09:05:53;24.20;11.50
8422;DHT22;4248;48.196;10.924;2023-07-31T09:08:21;24.10;11.40
8422;DHT22;4248;48.196;10.924;2023-07-31T09:10:47;24.10;11.50
8422;DHT22;4248;48.196;10.924;2023-07-31T09:13:15;24.30;11.40
8422;DHT22;4248;48.196;10.924;2023-07-31T09:15:43;24.30;11.30
8422;DHT22;4248;48.196;10.924;2023-07-31T09:18:09;24.60;10.80
8422;DHT22;4248;48.196;10.924;2023-07-31T09:20:35;24.50;10.60
8422;DHT22;4248;48.196;10.924;2023-07-31T09:23:13;24.40;10.90
8422;DHT22;4248;48.196;10.924;2023-07-31T09:25:39;24.60;10.50
8422;DHT22;4248;48.196;10.924;2023-07-31T09:28:06;24.50;10.30
8422;DHT22;4248;48.196;10.924;2023-07-31T09:30:47;24.70;10.10
8422;DHT22;4248;48.196;10.924;2023-07-31T09:33:13;24.80;9.80
8422;DHT22;4248;48.196;10.924;2023-07-31T09:35:39;24.90;10.00
8422;DHT22;4248;48.196;10.924;2023-07-31T09:38:14;24.90;11.20
8422;DHT22;4248;48.196;10.924;2023-07-31T09:40:45;25.00;9.80
8422;DHT22;4248;48.196;10.924;2023-07-31T09:43:21;24.60;9.80
8422;DHT22;4248;48.196;10.924;2023-07-31T09:45:47;24.60;10.20
8422;DHT22;4248;48.196;10.924;2023-07-31T09:48:15;24.30;10.00
8422;DHT22;4248;48.196;10.924;2023-07-31T09:50:48;24.20;10.40
8422;DHT22;4248;48.196;10.924;2023-07-31T09:53:15;24.20;10.50
8422;DHT22;4248;48.196;10.924;2023-07-31T09:55:42;24.50;10.60
8422;DHT22;4248;48.196;10.924;2023-07-31T09:58:12;24.50;10.60
8422;DHT22;4248;48.196;10.924;2023-07-31T10:00:38;24.40;10.60
8422;DHT22;4248;48.196;10.924;2023-07-31T10:03:10;24.40;10.70
8422;DHT22;4248;48.196;10.924;2023-07-31T10:05:50;24.40;10.50
8422;DHT22;4248;48.196;10.924;2023-07-31T10:08:16;24.10;10.60
8422;DHT22;4248;48.196;10.924;2023-07-31T10:10:44;24.20;11.90
8422;DHT22;4248;48.196;10.924;2023-07-31T10:13:10;24.00;11.10
8422;DHT22;4248;48.196;10.924;2023-07-31T10:15:36;24.20;10.90
8422;DHT22;4248;48.196;10.924;2023-07-31T10:18:02;24.40;10.40
8422;DHT22;4248;48.196;10.924;2023-07-31T10:20:31;24.60;10.30
8422;DHT22;4248;48.196;10.924;2023-07-31T10:22:57;24.60;10.20
8422;DHT22;4248;48.196;10.924;2023-07-31T10:25:26;24.40;10.60
8422;DHT22;4248;48.196;10.924;2023-07-31T10:27:52;24.60;10.40
8422;DHT22;4248;48.196;10.924;2023-07-31T10:30:22;24.50;10.50
8422;DHT22;4248;48.196;10.924;2023-07-31T10:32:49;24.60;10.60
8422;DHT22;4248;48.196;10.924;2023-07-31T10:35:16;24.50;10.50
8422;DHT22;4248;48.196;10.924;2023-07-31T10:37:43;24.60;10.80
8422;DHT22;4248;48.196;10.924;2023-07-31T10:40:28;24.90;10.60
8422;DHT22;4248;48.196;10.924;2023-07-31T10:42:57;24.80;10.00
8422;DHT22;4248;48.196;10.924;2023-07-31T10:45:33;24.70;10.30
8422;DHT22;4248;48.196;10.924;2023-07-31T10:48:15;24.50;10.80
8422;DHT22;4248;48.196;10.924;2023-07-31T10:50:54;24.60;10.30
8422;DHT22;4248;48.196;10.924;2023-07-31T10:53:25;24.40;10.30
8422;DHT22;4248;48.196;10.924;2023-07-31T10:55:50;24.00;11.10
8422;DHT22;4248;48.196;10.924;2023-07-31T10:58:20;24.20;11.50
8422;DHT22;4248;48.196;10.924;2023-07-31T11:00:49;24.20;11.50
8422;DHT22;4248;48.196;10.924;2023-07-31T11:03:16;24.20;11.70
8422;DHT22;4248;48.196;10.924;2023-07-31T11:06:12;24.30;11.80
8422;DHT22;4248;48.196;10.924;2023-07-31T11:08:46;24.30;11.60
8422;DHT22;4248;48.196;10.924;2023-07-31T11:11:17;24.30;11.60
8422;DHT22;4248;48.196;10.924;2023-07-31T11:13:45;24.30;11.50
8422;DHT22;4248;48.196;10.924;2023-07-31T11:16:13;24.30;11.50
8422;DHT22;4248;48.196;10.924;2023-07-31T11:18:45;24.00;11.80
8422;DHT22;4248;48.196;10.924;2023-07-31T11:21:23;23.90;12.20
8422;DHT22;4248;48.196;10.924;2023-07-31T11:23:51;24.10;12.20
8422;DHT22;4248;48.196;10.924;2023-07-31T11:26:18;24.00;11.80
8422;DHT22;4248;48.196;10.924;2023-07-31T11:28:45;24.20;11.70
8422;DHT22;4248;48.196;10.924;2023-07-31T11:31:11;24.50;11.60
8422;DHT22;4248;48.196;10.924;2023-07-31T11:33:37;24.60;11.50
8422;DHT22;4248;48.196;10.924;2023-07-31T11:36:03;24.60;11.50
8422;DHT22;4248;48.196;10.924;2023-07-31T11:38:30;24.40;11.10
8422;DHT22;4248;48.196;10.924;2023-07-31T11:40:58;24.40;11.40
8422;DHT22;4248;48.196;10.924;2023-07-31T11:43:25;24.70;10.90
8422;DHT22;4248;48.196;10.924;2023-07-31T11:45:54;25.00;10.80
8422;DHT22;4248;48.196;10.924;2023-07-31T11:48:31;25.30;10.40
8422;DHT22;4248;48.196;10.924;2023-07-31T11:51:06;25.60;9.90
8422;DHT22;4248;48.196;10.924;2023-07-31T11:53:43;26.00;9.60
8422;DHT22;4248;48.196;10.924;2023-07-31T11:56:13;26.20;9.00
8422;DHT22;4248;48.196;10.924;2023-07-31T11:58:39;26.30;8.90
8422;DHT22;4248;48.196;10.924;2023-07-31T12:01:06;26.20;8.50
8422;DHT22;4248;48.196;10.924;2023-07-31T12:03:32;25.90;8.60
8422;DHT22;4248;48.196;10.924;2023-07-31T12:05:59;25.60;8.90
8422;DHT22;4248;48.196;10.924;2023-07-31T12:08:25;25.50;9.00
8422;DHT22;4248;48.196;10.924;2023-07-31T12:10:52;25.60;9.10
8422;DHT22;4248;48.196;10.924;2023-07-31T12:13:23;25.70;8.90
8422;DHT22;4248;48.196;10.924;2023-07-31T12:15:49;25.80;8.50
8422;DHT22;4248;48.196;10.924;2023-07-31T12:18:20;25.90;8.50
8422;DHT22;4248;48.196;10.924;2023-07-31T12:20:53;25.80;8.70
8422;DHT22;4248;48.196;10.924;2023-07-31T12:23:30;25.70;9.10
8422;DHT22;4248;48.196;10.924;2023-07-31T12:26:13;25.60;8.90
8422;DHT22;4248;48.196;10.924;2023-07-31T12:28:43;25.60;8.80
8422;DHT22;4248;48.196;10.924;2023-07-31T12:31:10;25.70;8.90
8422;DHT22;4248;48.196;10.924;2023-07-31T12:33:38;25.70;8.60
8422;DHT22;4248;48.196;10.924;2023-07-31T12:36:08;25.50;8.60
8422;DHT22;4248;48.196;10.924;2023-07-31T12:38:34;25.30;9.10
8422;DHT22;4248;48.196;10.924;2023-07-31T12:41:00;25.50;8.80
8422;DHT22;4248;48.196;10.924;2023-07-31T12:43:25;25.70;8.20
8422;DHT22;4248;48.196;10.924;2023-07-31T12:45:51;25.70;8.50
8422;DHT22;4248;48.196;10.924;2023-07-31T12:48:16;25.80;8.50
8422;DHT22;4248;48.196;10.924;2023-07-31T12:50:42;25.80;8.20
8422;DHT22;4248;48.196;10.924;2023-07-31T12:53:07;25.70;8.20
8422;DHT22;4248;48.196;10.924;2023-07-31T12:55:34;25.50;8.50
8422;DHT22;4248;48.196;10.924;2023-07-31T12:58:00;25.70;8.40
8422;DHT22;4248;48.196;10.924;2023-07-31T13:00:26;26.00;8.10
8422;DHT22;4248;48.196;10.924;2023-07-31T13:02:52;26.20;7.90
8422;DHT22;4248;48.196;10.924;2023-07-31T13:05:18;26.40;7.40
8422;DHT22;4248;48.196;10.924;2023-07-31T13:07:45;26.10;6.90
8422;DHT22;4248;48.196;10.924;2023-07-31T13:10:10;26.10;7.30
8422;DHT22;4248;48.196;10.924;2023-07-31T13:12:36;25.70;7.10
8422;DHT22;4248;48.196;10.924;2023-07-31T13:15:02;25.80;7.70
8422;DHT22;4248;48.196;10.924;2023-07-31T13:17:27;26.00;7.50
8422;DHT22;4248;48.196;10.924;2023-07-31T13:19:53;26.20;7.50
8422;DHT22;4248;48.196;10.924;2023-07-31T13:22:18;26.10;7.30
8422;DHT22;4248;48.196;10.924;2023-07-31T13:24:44;26.00;7.40
8422;DHT22;4248;48.196;10.924;2023-07-31T13:27:09;25.90;7.40
8422;DHT22;4248;48.196;10.924;2023-07-31T13:29:35;26.00;7.20
8422;DHT22;4248;48.196;10.924;2023-07-31T13:32:00;25.90;7.30
8422;DHT22;4248;48.196;10.924;2023-07-31T13:34:26;25.80;7.40
8422;DHT22;4248;48.196;10.924;2023-07-31T13:36:54;25.80;7.10
8422;DHT22;4248;48.196;10.924;2023-07-31T13:39:19;26.00;7.20
8422;DHT22;4248;48.196;10.924;2023-07-31T13:41:45;25.90;6.70
8422;DHT22;4248;48.196;10.924;2023-07-31T13:44:10;25.90;6.80
8422;DHT22;4248;48.196;10.924;2023-07-31T13:46:36;26.10;6.50
8422;DHT22;4248;48.196;10.924;2023-07-31T13:49:02;26.50;6.00
8422;DHT22;4248;48.196;10.924;2023-07-31T13:51:27;26.90;5.50
8422;DHT22;4248;48.196;10.924;2023-07-31T13:53:53;27.30;4.70
8422;DHT22;4248;48.196;10.924;2023-07-31T13:56:19;27.50;4.80
8422;DHT22;4248;48.196;10.924;2023-07-31T13:58:45;27.40;4.70
8422;DHT22;4248;48.196;10.924;2023-07-31T14:01:10;27.10;4.40
8422;DHT22;4248;48.196;10.924;2023-07-31T14:03:36;26.60;4.30
8422;DHT22;4248;48.196;10.924;2023-07-31T14:06:02;26.00;4.80
8422;DHT22;4248;48.196;10.924;2023-07-31T14:08:27;25.80;5.20
8422;DHT22;4248;48.196;10.924;2023-07-31T14:10:53;25.80;5.50
8422;DHT22;4248;48.196;10.924;2023-07-31T14:13:18;25.50;5.60
8422;DHT22;4248;48.196;10.924;2023-07-31T14:15:44;25.40;5.60
8422;DHT22;4248;48.196;10.924;2023-07-31T14:18:10;25.50;5.40
8422;DHT22;4248;48.196;10.924;2023-07-31T14:20:35;25.40;5.60
8422;DHT22;4248;48.196;10.924;2023-07-31T14:23:02;25.20;5.80
8422;DHT22;4248;48.196;10.924;2023-07-31T14:25:28;25.00;6.20
8422;DHT22;4248;48.196;10.924;2023-07-31T14:27:53;24.80;6.40
8422;DHT22;4248;48.196;10.924;2023-07-31T14:30:19;24.60;6.80
8422;DHT22;4248;48.196;10.924;2023-07-31T14:32:46;24.50;7.20
8422;DHT22;4248;48.196;10.924;2023-07-31T14:35:12;24.30;7.40
8422;DHT22;4248;48.196;10.924;2023-07-31T14:37:41;24.40;7.80
8422;DHT22;4248;48.196;10.924;2023-07-31T14:40:08;24.10;7.60
8422;DHT22;4248;48.196;10.924;2023-07-31T14:42:35;24.00;7.80
8422;DHT22;4248;48.196;10.924;2023-07-31T14:45:01;24.20;8.10
8422;DHT22;4248;48.196;10.924;2023-07-31T14:47:26;24.30;8.10
8422;DHT22;4248;48.196;10.924;2023-07-31T14:49:52;24.50;8.20
8422;DHT22;4248;48.196;10.924;2023-07-31T14:52:18;24.40;8.10
8422;DHT22;4248;48.196;10.924;2023-07-31T14:54:44;24.50;8.20
8422;DHT22;4248;48.196;10.924;2023-07-31T14:57:10;24.40;8.30
8422;DHT22;4248;48.196;10.924;2023-07-31T14:59:35;24.50;8.40
8422;DHT22;4248;48.196;10.924;2023-07-31T15:02:01;24.50;8.30
8422;DHT22;4248;48.196;10.924;2023-07-31T15:04:27;24.50;8.20
8422;DHT22;4248;48.196;10.924;2023-07-31T15:06:53;24.40;8.20
8422;DHT22;4248;48.196;10.924;2023-07-31T15:09:18;24.40;8.50
8422;DHT22;4248;48.196;10.924;2023-07-31T15:11:44;24.40;9.70
8422;DHT22;4248;48.196;10.924;2023-07-31T15:14:10;24.40;8.80
8422;DHT22;4248;48.196;10.924;2023-07-31T15:16:35;24.20;9.30
8422;DHT22;4248;48.196;10.924;2023-07-31T15:19:01;24.00;9.80
8422;DHT22;4248;48.196;10.924;2023-07-31T15:21:26;23.80;10.10
8422;DHT22;4248;48.196;10.924;2023-07-31T15:23:52;23.80;10.00
8422;DHT22;4248;48.196;10.924;2023-07-31T15:26:18;23.80;10.00
8422;DHT22;4248;48.196;10.924;2023-07-31T15:28:49;23.90;10.00
8422;DHT22;4248;48.196;10.924;2023-07-31T15:31:15;24.20;9.80
8422;DHT22;4248;48.196;10.924;2023-07-31T15:33:41;24.40;9.40
8422;DHT22;4248;48.196;10.924;2023-07-31T15:36:06;24.60;9.10
8422;DHT22;4248;48.196;10.924;2023-07-31T15:38:32;24.80;8.80
8422;DHT22;4248;48.196;10.924;2023-07-31T15:40:57;25.00;8.60
8422;DHT22;4248;48.196;10.924;2023-07-31T15:43:23;25.00;8.80
8422;DHT22;4248;48.196;10.924;2023-07-31T15:45:49;24.90;8.90
8422;DHT22;4248;48.196;10.924;2023-07-31T15:48:14;24.90;9.20
8422;DHT22;4248;48.196;10.924;2023-07-31T15:50:40;25.00;9.40
8422;DHT22;4248;48.196;10.924;2023-07-31T15:53:05;25.00;9.40
8422;DHT22;4248;48.196;10.924;2023-07-31T15:55:33;25.00;9.60
8422;DHT22;4248;48.196;10.924;2023-07-31T15:57:58;24.90;9.80